सभी
Adels Grove Airport (Adels Grove, Queensland) YALG मौसम
There is no TAF data available at YALG or any nearby airports.
There is no METAR data available at YALG. Showing METAR data for YCNY (12 mi E).
Recent YCNY METAR history (no data for YALG)
| Date | Time (AEST) | Flight Rules | Wind Dir. | Speed | Type | Height AGL (ft) | Visibility | Temp (°C) | Temp (°F) | Dew Point (°C) | Dew Point (°F) | Rel. Humid. | Pressure | Density Altitude | Remarks |
|---|---|---|---|---|---|---|---|---|---|---|---|---|---|---|---|
| 03-मई | 15:00 | n/a | 80° | 4 kt | Missing | 34° | 93° | 16° | 60° | 34% | 1012 mb | 2,732 ft | |||
| 03-मई | 14:00 | n/a | 150° | 5 kt | Missing | 32° | 89° | 17° | 62° | 41% | 1012 mb | 2,492 ft | |||
| 03-मई | 13:00 | n/a | 90° | 6 kt | Missing | 34° | 93° | 16° | 60° | 34% | 1013 mb | 2,702 ft | |||
| 03-मई | 12:00 | n/a | 80° | 6 kt | Missing | 33° | 91° | 16° | 60° | 36% | 1014 mb | 2,553 ft | |||
| 03-मई | 11:00 | n/a | 150° | 5 kt | Missing | 31° | 87° | 16° | 60° | 40% | 1014 mb | 2,313 ft | |||
| 03-मई | 10:00 | n/a | 120° | 4 kt | Missing | 30° | 86° | 17° | 62° | 46% | 1015 mb | 2,163 ft | |||
| 03-मई | 09:00 | n/a | 170° | 3 kt | Missing | 28° | 82° | 18° | 64° | 55% | 1014 mb | 1,953 ft | |||
| 03-मई | 08:00 | n/a | 210° | 1 kt | Missing | 25° | 77° | 19° | 66° | 69% | 1014 mb | 1,593 ft | |||
| 03-मई | 07:00 | n/a | 210° | 5 kt | Missing | 21° | 69° | 18° | 64° | 83% | 1013 mb | 1,142 ft | |||
| 03-मई | 06:00 | n/a | 220° | 5 kt | Missing | 20° | 68° | 18° | 64° | 88% | 1012 mb | 1,052 ft | |||
| 03-मई | 05:00 | n/a | 220° | 2 kt | Missing | 20° | 68° | 18° | 64° | 88% | 1011 mb | 1,081 ft | |||
| 03-मई | 04:00 | n/a | 220° | 5 kt | Missing | 21° | 69° | 18° | 64° | 83% | 1012 mb | 1,172 ft | |||
| 03-मई | 03:00 | n/a | 220° | 1 kt | Missing | 21° | 69° | 18° | 64° | 83% | 1012 mb | 1,172 ft | |||
| 03-मई | 02:00 | n/a | Calm | Missing | 21° | 69° | 19° | 66° | 88% | 1012 mb | 1,172 ft | ||||
| 03-मई | 01:00 | n/a | 220° | 4 kt | Missing | 23° | 73° | 19° | 66° | 78% | 1013 mb | 1,382 ft | |||
| 03-मई | 00:00 | n/a | 230° | 4 kt | Missing | 24° | 75° | 19° | 66° | 74% | 1013 mb | 1,502 ft | |||
| 02-मई | 23:00 | n/a | Calm | Missing | 24° | 75° | 19° | 66° | 74% | 1013 mb | 1,502 ft | ||||
| 02-मई | 22:00 | n/a | Calm | Missing | 23° | 73° | 19° | 66° | 78% | 1013 mb | 1,382 ft | ||||
| 02-मई | 21:00 | n/a | Calm | Missing | 24° | 75° | 19° | 66° | 74% | 1013 mb | 1,502 ft | ||||
| 02-मई | 20:00 | n/a | Calm | Missing | 24° | 75° | 19° | 66° | 74% | 1012 mb | 1,532 ft | ||||
| 02-मई | 19:00 | n/a | 160° | 4 kt | Missing | 27° | 80° | 19° | 66° | 62% | 1011 mb | 1,921 ft | |||
| 02-मई | 18:00 | n/a | 180° | 3 kt | Missing | 30° | 86° | 19° | 66° | 52% | 1011 mb | 2,281 ft | |||
| 02-मई | 17:00 | n/a | 150° | 5 kt | Missing | 32° | 89° | 15° | 59° | 36% | 1011 mb | 2,521 ft | |||
| 02-मई | 16:00 | n/a | 80° | 6 kt | Missing | 34° | 93° | 16° | 60° | 34% | 1011 mb | 2,761 ft |
लॉगिन
| Your browser is unsupported. अपना ब्राऊजर अपग्रेड करें |
